createdAt,value
2022-08-17T00:02:25.265Z,28.49
2022-08-17T00:04:55.006Z,28.45
2022-08-17T00:07:21.977Z,28.37
2022-08-17T00:09:48.674Z,28.34
2022-08-17T00:12:43.684Z,28.39
2022-08-17T00:15:02.685Z,28.39
2022-08-17T00:17:29.554Z,28.29
2022-08-17T00:19:56.222Z,28.33
2022-08-17T00:22:32.892Z,28.23
2022-08-17T00:25:03.125Z,28.17
2022-08-17T00:27:30.108Z,28.39
2022-08-17T00:29:56.877Z,28.48
2022-08-17T00:33:15.341Z,28.27
2022-08-17T00:35:11.839Z,28.31
2022-08-17T00:37:38.848Z,28.40
2022-08-17T00:40:06.707Z,28.34
2022-08-17T00:42:34.214Z,28.31
2022-08-17T00:45:00.997Z,28.26
2022-08-17T00:47:27.747Z,28.34
2022-08-17T00:49:54.446Z,28.48
2022-08-17T00:52:23.150Z,28.34
2022-08-17T00:54:52.476Z,28.40
2022-08-17T00:57:23.412Z,28.38
2022-08-17T01:00:02.170Z,28.39
2022-08-17T01:02:53.361Z,28.28
2022-08-17T01:05:25.346Z,28.22
2022-08-17T01:07:52.937Z,28.23
2022-08-17T01:10:58.349Z,28.27
2022-08-17T01:13:11.955Z,28.28
2022-08-17T01:15:41.400Z,28.24
2022-08-17T01:18:13.764Z,27.96
2022-08-17T01:20:52.414Z,28.10
2022-08-17T01:23:21.477Z,28.08
2022-08-17T01:25:50.961Z,28.14
2022-08-17T01:28:53.109Z,28.19
2022-08-17T01:31:07.628Z,28.20
2022-08-17T01:33:34.363Z,28.23
2022-08-17T01:36:01.123Z,28.15
2022-08-17T01:38:31.794Z,28.09
2022-08-17T01:41:02.669Z,28.22
2022-08-17T01:43:48.883Z,28.15
2022-08-17T01:46:21.829Z,28.05
2022-08-17T01:48:51.117Z,28.06
2022-08-17T01:51:18.048Z,28.06
2022-08-17T01:53:49.037Z,27.99
2022-08-17T01:56:18.751Z,27.94
2022-08-17T01:58:46.742Z,27.96
2022-08-17T02:01:21.564Z,27.86
2022-08-17T02:03:59.049Z,27.86
2022-08-17T02:06:52.485Z,27.93
2022-08-17T02:09:23.211Z,27.89
2022-08-17T02:11:52.860Z,27.85
2022-08-17T02:14:20.848Z,27.79
2022-08-17T02:16:47.569Z,27.78
2022-08-17T02:19:15.898Z,27.79
2022-08-17T02:21:45.064Z,27.69
2022-08-17T02:24:14.875Z,27.70
2022-08-17T02:26:42.124Z,27.64
2022-08-17T02:29:08.843Z,27.68
2022-08-17T02:31:35.648Z,27.37
2022-08-17T02:34:04.388Z,27.11
2022-08-17T02:36:35.933Z,27.28
2022-08-17T02:39:05.392Z,27.48
2022-08-17T02:41:32.169Z,27.57
2022-08-17T02:43:59.078Z,27.53
2022-08-17T02:46:26.079Z,27.32
2022-08-17T02:48:52.839Z,26.93
2022-08-17T02:51:19.748Z,27.07
2022-08-17T02:53:46.849Z,27.45
2022-08-17T02:56:13.604Z,27.23
2022-08-17T02:58:40.310Z,27.19
2022-08-17T03:01:09.139Z,27.29
2022-08-17T03:03:36.997Z,26.21
2022-08-17T03:06:04.555Z,27.03
2022-08-17T03:08:31.691Z,27.07
2022-08-17T03:10:58.338Z,26.94
2022-08-17T03:13:25.105Z,26.83
2022-08-17T03:15:51.964Z,27.04
2022-08-17T03:18:24.918Z,26.77
2022-08-17T03:20:58.842Z,26.00
2022-08-17T03:23:27.273Z,26.10
2022-08-17T03:25:54.881Z,25.95
2022-08-17T03:28:23.323Z,25.73
2022-08-17T03:30:51.214Z,25.88
2022-08-17T03:33:18.946Z,26.27
2022-08-17T03:35:45.758Z,26.25
2022-08-17T03:38:15.937Z,26.10
2022-08-17T03:40:58.663Z,26.30
2022-08-17T03:43:29.584Z,25.88
2022-08-17T03:46:27.866Z,26.53
2022-08-17T03:49:19.477Z,26.98
2022-08-17T03:52:04.649Z,26.99
2022-08-17T03:54:50.008Z,26.88
2022-08-17T03:57:16.778Z,26.94
2022-08-17T03:59:45.092Z,26.58
2022-08-17T04:02:24.669Z,27.00
2022-08-17T04:04:52.322Z,26.56
2022-08-17T04:07:20.866Z,26.71
2022-08-17T04:09:47.739Z,26.56
2022-08-17T04:12:16.216Z,26.56
2022-08-17T04:14:51.731Z,26.72
2022-08-17T04:17:25.989Z,26.89
2022-08-17T04:19:53.452Z,26.41
2022-08-17T04:22:31.906Z,26.33
2022-08-17T04:25:08.220Z,26.40
2022-08-17T04:27:34.943Z,26.20
2022-08-17T04:30:02.105Z,26.56
2022-08-17T04:33:04.057Z,26.36
2022-08-17T04:35:21.343Z,25.82
2022-08-17T04:37:48.145Z,25.86
2022-08-17T04:40:50.680Z,26.04
2022-08-17T04:43:21.513Z,25.94
2022-08-17T04:45:56.917Z,25.94
2022-08-17T04:48:36.550Z,25.37
2022-08-17T04:51:10.634Z,25.62
2022-08-17T04:53:38.869Z,25.14
2022-08-17T04:56:06.023Z,25.22
2022-08-17T04:58:32.771Z,25.38
2022-08-17T05:00:59.779Z,25.80
2022-08-17T05:03:26.668Z,26.04
2022-08-17T05:05:53.761Z,26.23
2022-08-17T05:08:21.464Z,25.71
2022-08-17T05:10:48.724Z,25.96
2022-08-17T05:13:19.683Z,26.24
2022-08-17T05:15:48.313Z,25.91
2022-08-17T05:18:16.765Z,26.02
2022-08-17T05:20:43.666Z,26.09
2022-08-17T05:23:16.143Z,25.73
2022-08-17T05:25:47.582Z,25.51
2022-08-17T05:28:16.366Z,25.82
2022-08-17T05:30:43.941Z,25.59
2022-08-17T05:33:19.590Z,25.52
2022-08-17T05:35:49.263Z,25.71
2022-08-17T05:38:17.679Z,25.58
2022-08-17T05:40:45.017Z,25.58
2022-08-17T05:43:11.775Z,25.00
2022-08-17T05:46:03.747Z,25.76
2022-08-17T05:48:44.059Z,25.81
2022-08-17T05:51:32.585Z,25.55
2022-08-17T05:54:27.282Z,25.75
2022-08-17T05:57:15.449Z,25.77
2022-08-17T05:59:52.034Z,25.80
2022-08-17T06:02:34.765Z,26.15
2022-08-17T06:05:20.205Z,26.25
2022-08-17T06:08:17.726Z,25.82
2022-08-17T06:10:53.176Z,26.12
2022-08-17T06:13:47.939Z,26.34
2022-08-17T06:16:32.960Z,26.38
2022-08-17T06:19:16.136Z,26.44
2022-08-17T06:21:45.236Z,26.10
2022-08-17T06:24:34.329Z,26.42
2022-08-17T06:27:30.276Z,26.51
2022-08-17T06:30:13.557Z,26.22
2022-08-17T06:32:45.930Z,26.32
2022-08-17T06:35:15.661Z,26.14
2022-08-17T06:38:09.477Z,26.49
2022-08-17T06:40:51.571Z,26.50
2022-08-17T06:44:03.972Z,25.94
2022-08-17T06:46:37.335Z,25.73
2022-08-17T06:49:09.099Z,24.90
2022-08-17T06:51:40.430Z,24.96
2022-08-17T06:54:35.288Z,25.75
2022-08-17T06:57:22.542Z,25.48
2022-08-17T06:59:58.347Z,25.38
2022-08-17T07:02:51.230Z,25.42
2022-08-17T07:05:23.415Z,25.47
2022-08-17T07:08:03.018Z,25.12
2022-08-17T07:10:46.509Z,25.49
2022-08-17T07:13:20.510Z,25.86
2022-08-17T07:15:47.566Z,25.89
2022-08-17T07:18:14.383Z,25.96
2022-08-17T07:20:44.126Z,25.61
2022-08-17T07:23:22.496Z,25.00
2022-08-17T07:25:49.850Z,24.94
2022-08-17T07:28:22.960Z,24.80
2022-08-17T07:30:54.728Z,24.87
2022-08-17T07:33:25.782Z,24.99
2022-08-17T07:35:57.331Z,25.24
2022-08-17T07:38:29.538Z,25.19
2022-08-17T07:41:02.823Z,25.35
2022-08-17T07:43:40.783Z,25.49
2022-08-17T07:46:48.526Z,25.36
2022-08-17T07:49:18.687Z,25.17
2022-08-17T07:51:47.194Z,24.59
2022-08-17T07:54:25.147Z,24.81
2022-08-17T07:57:09.472Z,24.56
2022-08-17T07:59:43.310Z,24.70
2022-08-17T08:02:36.467Z,24.65
2022-08-17T08:05:03.202Z,24.84
2022-08-17T08:07:38.291Z,24.78
2022-08-17T08:10:08.007Z,25.13
2022-08-17T08:12:44.150Z,25.38
2022-08-17T08:15:22.618Z,25.68
2022-08-17T08:18:01.311Z,25.81
2022-08-17T08:20:52.719Z,25.92
2022-08-17T08:23:41.898Z,25.77
2022-08-17T08:26:28.968Z,25.61
2022-08-17T08:29:14.211Z,25.72
2022-08-17T08:31:55.862Z,25.38
2022-08-17T08:38:00.710Z,25.35
2022-08-17T08:40:50.241Z,25.26
2022-08-17T08:43:27.477Z,25.46
2022-08-17T08:46:13.049Z,25.57
2022-08-17T08:48:58.472Z,25.51
2022-08-17T08:51:55.666Z,25.42
2022-08-17T08:54:31.772Z,25.63
2022-08-17T09:00:17.558Z,25.91
2022-08-17T09:03:32.422Z,26.01
2022-08-17T09:06:37.833Z,26.02
2022-08-17T09:09:25.848Z,25.87
2022-08-17T09:12:26.025Z,25.80
2022-08-17T09:15:12.336Z,25.56
2022-08-17T09:19:01.131Z,25.52
2022-08-17T09:20:51.518Z,25.41
2022-08-17T09:23:32.671Z,25.76
2022-08-17T09:26:25.416Z,25.97
2022-08-17T09:28:58.358Z,25.80
2022-08-17T09:31:46.440Z,25.83
2022-08-17T09:34:21.822Z,25.84
2022-08-17T09:37:12.280Z,25.82
2022-08-17T09:39:48.971Z,25.60
2022-08-17T09:42:40.963Z,25.49
2022-08-17T09:45:45.689Z,25.36
2022-08-17T09:48:18.147Z,25.42
2022-08-17T09:51:05.139Z,25.70
2022-08-17T09:53:36.213Z,25.82
2022-08-17T09:56:03.124Z,25.65
2022-08-17T09:58:59.372Z,25.82
2022-08-17T10:01:54.054Z,25.96
2022-08-17T10:04:29.351Z,26.13
2022-08-17T10:07:05.556Z,25.83
2022-08-17T10:10:00.887Z,25.48
2022-08-17T10:12:47.649Z,25.53
2022-08-17T10:15:36.704Z,25.12
2022-08-17T10:18:33.242Z,25.44
2022-08-17T10:21:28.110Z,25.45
2022-08-17T10:24:26.817Z,25.55
2022-08-17T10:26:57.532Z,25.46
2022-08-17T10:29:47.292Z,25.82
2022-08-17T10:32:45.271Z,25.44
2022-08-17T10:35:43.867Z,25.30
2022-08-17T10:38:51.178Z,25.76
2022-08-17T10:41:41.441Z,25.85
2022-08-17T10:44:39.756Z,25.46
2022-08-17T10:47:15.173Z,25.54
2022-08-17T10:49:54.163Z,25.42
2022-08-17T10:52:22.049Z,25.56
2022-08-17T10:54:51.871Z,24.69
2022-08-17T10:57:34.450Z,24.16
2022-08-17T11:00:02.608Z,24.51
2022-08-17T11:02:41.500Z,24.53
2022-08-17T11:05:33.539Z,24.75
2022-08-17T11:08:14.777Z,25.15
2022-08-17T11:10:53.439Z,25.22
2022-08-17T11:13:40.641Z,25.31
2022-08-17T11:16:22.657Z,24.81
2022-08-17T11:19:10.874Z,24.53
2022-08-17T11:22:02.542Z,24.89
2022-08-17T11:24:30.625Z,24.88
2022-08-17T11:27:28.856Z,25.11
2022-08-17T11:30:04.033Z,25.44
2022-08-17T11:32:47.783Z,25.41
2022-08-17T11:35:21.641Z,25.56
2022-08-17T11:37:56.787Z,25.69
2022-08-17T11:40:38.665Z,25.53
2022-08-17T11:43:25.419Z,25.96
2022-08-17T11:46:24.939Z,26.38
2022-08-17T11:49:36.599Z,26.55
2022-08-17T11:52:06.551Z,26.81
2022-08-17T11:54:42.900Z,26.75
2022-08-17T11:57:31.045Z,27.05
2022-08-17T11:59:59.053Z,27.29
2022-08-17T12:02:31.488Z,27.41
2022-08-17T12:05:34.255Z,27.45
2022-08-17T12:08:04.664Z,27.48
2022-08-17T12:10:36.492Z,27.59
2022-08-17T12:13:15.486Z,26.96
2022-08-17T12:15:52.795Z,26.72
2022-08-17T12:18:29.631Z,26.94
2022-08-17T12:21:34.500Z,27.22
2022-08-17T12:24:22.635Z,26.85
2022-08-17T12:26:58.513Z,27.24
2022-08-17T12:29:35.962Z,27.20
2022-08-17T12:32:07.244Z,26.98
2022-08-17T12:34:36.070Z,27.31
2022-08-17T12:37:26.424Z,27.16
2022-08-17T12:40:04.242Z,26.60
2022-08-17T12:42:37.535Z,26.75
2022-08-17T12:45:21.919Z,26.53
2022-08-17T12:47:48.855Z,26.77
2022-08-17T12:50:29.134Z,27.05
2022-08-17T12:53:01.298Z,27.22
2022-08-17T12:55:33.967Z,27.88
2022-08-17T12:58:01.885Z,27.29
2022-08-17T13:00:42.056Z,26.92
2022-08-17T13:03:22.797Z,27.05
2022-08-17T13:05:54.890Z,27.15
2022-08-17T13:08:28.563Z,26.94
2022-08-17T13:10:58.860Z,27.48
2022-08-17T13:13:29.040Z,27.68
2022-08-17T13:16:05.198Z,27.49
2022-08-17T13:18:51.586Z,27.82
2022-08-17T13:21:27.041Z,27.77
2022-08-17T13:24:13.025Z,27.57
2022-08-17T13:26:54.503Z,27.63
2022-08-17T13:29:29.086Z,27.38
2022-08-17T13:32:13.133Z,27.64
2022-08-17T13:35:13.051Z,27.29
2022-08-17T13:37:35.958Z,27.87
2022-08-17T13:40:11.856Z,27.49
2022-08-17T13:42:54.031Z,27.93
2022-08-17T13:45:34.997Z,27.39
2022-08-17T13:48:11.139Z,27.61
2022-08-17T13:51:00.817Z,27.14
2022-08-17T13:53:27.499Z,27.71
2022-08-17T13:56:03.422Z,27.29
2022-08-17T13:58:33.599Z,27.40
2022-08-17T14:01:30.176Z,27.69
2022-08-17T14:03:58.574Z,27.22
2022-08-17T14:06:53.327Z,27.06
2022-08-17T14:09:16.026Z,28.00
2022-08-17T14:11:44.795Z,26.95
2022-08-17T14:14:13.775Z,27.40
2022-08-17T14:16:41.786Z,27.37
2022-08-17T14:19:13.533Z,27.72
2022-08-17T14:21:43.125Z,27.58
2022-08-17T14:24:22.647Z,27.74
2022-08-17T14:26:52.904Z,27.62
2022-08-17T14:29:21.562Z,27.77
2022-08-17T14:31:54.118Z,27.22
2022-08-17T14:34:23.024Z,27.71
2022-08-17T14:36:50.016Z,27.32
2022-08-17T14:39:17.655Z,27.85
2022-08-17T14:41:44.598Z,27.98
2022-08-17T14:44:12.633Z,28.20
2022-08-17T14:46:40.881Z,27.93
2022-08-17T14:49:12.627Z,28.13
2022-08-17T14:51:43.980Z,27.93
2022-08-17T14:54:32.867Z,28.11
2022-08-17T14:57:04.578Z,27.82
2022-08-17T14:59:51.739Z,28.17
2022-08-17T15:02:29.522Z,28.18
2022-08-17T15:05:02.367Z,27.71
2022-08-17T15:07:30.923Z,27.68
2022-08-17T15:10:02.080Z,28.02
2022-08-17T15:12:33.248Z,28.31
2022-08-17T15:15:02.112Z,28.70
2022-08-17T15:17:55.073Z,27.54
2022-08-17T15:20:25.622Z,28.27
2022-08-17T15:22:56.054Z,28.08
2022-08-17T15:25:25.163Z,28.14
2022-08-17T15:27:52.453Z,28.21
2022-08-17T15:30:19.695Z,27.88
2022-08-17T15:32:51.387Z,27.67
2022-08-17T15:35:27.858Z,28.28
2022-08-17T15:38:07.873Z,28.20
2022-08-17T15:40:45.072Z,28.35
2022-08-17T15:43:19.293Z,28.02
2022-08-17T15:45:56.798Z,28.12
2022-08-17T15:48:49.533Z,27.60
2022-08-17T15:51:32.075Z,27.73
2022-08-17T15:54:19.149Z,27.75
2022-08-17T15:56:49.651Z,27.58
2022-08-17T15:59:16.420Z,27.77
2022-08-17T16:03:14.597Z,27.50
2022-08-17T16:04:31.878Z,27.51
2022-08-17T16:06:59.536Z,27.57
2022-08-17T16:09:26.488Z,27.84
2022-08-17T16:11:55.659Z,28.02
2022-08-17T16:14:24.349Z,28.03
2022-08-17T16:16:53.115Z,27.94
2022-08-17T16:19:19.852Z,27.94
2022-08-17T16:21:46.718Z,27.99
2022-08-17T16:24:14.983Z,28.09
2022-08-17T16:26:43.076Z,27.82
2022-08-17T16:29:09.976Z,27.98
2022-08-17T16:31:47.205Z,28.16
2022-08-17T16:34:16.813Z,27.96
2022-08-17T16:36:55.491Z,28.11
2022-08-17T16:39:30.799Z,27.91
2022-08-17T16:41:58.768Z,27.88
2022-08-17T16:44:27.562Z,28.03
2022-08-17T16:46:54.267Z,27.94
2022-08-17T16:49:35.937Z,27.93
2022-08-17T16:52:07.706Z,27.94
2022-08-17T16:54:35.484Z,27.89
2022-08-17T16:57:05.214Z,27.70
2022-08-17T16:59:41.893Z,27.55
2022-08-17T17:02:18.303Z,27.55
2022-08-17T17:05:14.334Z,27.64
2022-08-17T17:08:07.790Z,27.55
2022-08-17T17:10:43.500Z,27.46
2022-08-17T17:13:30.975Z,27.48
2022-08-17T17:16:06.523Z,27.50
2022-08-17T17:18:44.477Z,27.18
2022-08-17T17:21:14.791Z,27.38
2022-08-17T17:23:45.171Z,27.41
2022-08-17T17:26:51.415Z,27.52
2022-08-17T17:29:27.353Z,27.57
2022-08-17T17:32:20.896Z,27.57
2022-08-17T17:34:56.441Z,27.64
2022-08-17T17:37:28.854Z,27.50
2022-08-17T17:39:57.330Z,27.31
2022-08-17T17:42:31.270Z,27.33
2022-08-17T17:45:04.078Z,27.56
2022-08-17T17:47:34.734Z,27.66
2022-08-17T17:50:02.443Z,27.61
2022-08-17T17:52:58.597Z,27.32
2022-08-17T17:55:25.409Z,27.63
2022-08-17T17:58:14.034Z,27.68
2022-08-17T18:00:49.471Z,27.52
2022-08-17T18:03:50.723Z,27.38
2022-08-17T18:06:28.855Z,27.49
2022-08-17T18:09:18.113Z,27.60
2022-08-17T18:12:18.481Z,27.60
2022-08-17T18:14:54.217Z,27.46
2022-08-17T18:17:23.703Z,27.53
2022-08-17T18:19:50.566Z,27.60
2022-08-17T18:22:20.165Z,27.57
2022-08-17T18:24:54.095Z,27.62
2022-08-17T18:27:37.214Z,27.56
2022-08-17T18:30:12.908Z,27.49
2022-08-17T18:32:42.553Z,27.43
2022-08-17T18:35:09.285Z,27.30
2022-08-17T18:37:51.373Z,27.30
2022-08-17T18:40:18.523Z,27.26
2022-08-17T18:43:04.166Z,27.07
2022-08-17T18:45:36.201Z,26.97
2022-08-17T18:48:03.419Z,26.86
2022-08-17T18:50:41.486Z,26.82
2022-08-17T18:53:33.934Z,26.94
2022-08-17T18:56:25.506Z,26.91
2022-08-17T18:59:14.151Z,26.96
2022-08-17T19:01:54.494Z,26.92
2022-08-17T19:04:32.788Z,26.94
2022-08-17T19:07:13.046Z,26.45
2022-08-17T19:09:47.556Z,26.73
2022-08-17T19:12:29.184Z,26.85
2022-08-17T19:14:57.576Z,26.77
2022-08-17T19:17:31.893Z,26.62
2022-08-17T19:20:11.316Z,26.67
2022-08-17T19:22:43.968Z,26.79
2022-08-17T19:25:17.022Z,26.65
2022-08-17T19:27:57.405Z,26.64
2022-08-17T19:30:25.119Z,26.55
2022-08-17T19:32:53.110Z,26.56
2022-08-17T19:35:20.775Z,26.37
2022-08-17T19:37:53.603Z,26.11
2022-08-17T19:40:51.244Z,26.12
2022-08-17T19:43:48.069Z,26.07
2022-08-17T19:46:35.959Z,26.10
2022-08-17T19:49:46.703Z,26.17
2022-08-17T19:52:26.310Z,26.11
2022-08-17T19:55:03.065Z,26.07
2022-08-17T19:57:41.895Z,26.00
2022-08-17T20:00:18.828Z,25.90
2022-08-17T20:02:57.759Z,25.94
2022-08-17T20:05:28.687Z,25.99
2022-08-17T20:08:01.676Z,25.91
2022-08-17T20:10:54.470Z,25.73
2022-08-17T20:13:33.534Z,25.86
2022-08-17T20:16:01.490Z,25.68
2022-08-17T20:18:34.380Z,25.63
2022-08-17T20:21:20.175Z,25.60
2022-08-17T20:23:58.790Z,25.76
2022-08-17T20:26:47.874Z,25.66
2022-08-17T20:29:40.018Z,25.43
2022-08-17T20:32:18.026Z,25.39
2022-08-17T20:34:46.094Z,25.45
2022-08-17T20:37:14.673Z,25.61
2022-08-17T20:40:11.794Z,25.63
2022-08-17T20:42:40.325Z,25.67
2022-08-17T20:45:23.433Z,25.61
2022-08-17T20:48:18.482Z,25.51
2022-08-17T20:50:44.063Z,25.37
2022-08-17T20:53:15.380Z,25.48
2022-08-17T20:55:52.305Z,25.55
2022-08-17T20:58:21.244Z,25.46
2022-08-17T21:00:57.162Z,25.52
2022-08-17T21:03:24.283Z,25.51
2022-08-17T21:06:00.365Z,25.57
2022-08-17T21:08:30.069Z,25.55
2022-08-17T21:10:58.206Z,25.53
2022-08-17T21:14:01.845Z,25.51
2022-08-17T21:16:35.850Z,25.37
2022-08-17T21:19:16.991Z,25.50
2022-08-17T21:22:05.756Z,25.50
2022-08-17T21:24:38.566Z,25.38
2022-08-17T21:27:25.147Z,25.42
2022-08-17T21:30:10.257Z,25.40
2022-08-17T21:32:42.170Z,25.31
2022-08-17T21:35:21.793Z,25.26
2022-08-17T21:37:53.356Z,25.03
2022-08-17T21:40:35.429Z,25.08
2022-08-17T21:43:27.645Z,25.25
2022-08-17T21:45:59.599Z,25.27
2022-08-17T21:48:27.528Z,25.36
2022-08-17T21:51:00.850Z,25.35
2022-08-17T21:53:34.553Z,25.27
2022-08-17T21:56:01.439Z,25.28
2022-08-17T21:58:31.325Z,25.23
2022-08-17T22:01:26.493Z,25.20
2022-08-17T22:04:04.259Z,25.04
2022-08-17T22:06:43.203Z,25.06
2022-08-17T22:09:32.109Z,24.93
2022-08-17T22:12:16.095Z,24.97
2022-08-17T22:14:56.707Z,24.98
2022-08-17T22:17:29.061Z,24.81
2022-08-17T22:20:09.495Z,24.98
2022-08-17T22:23:19.955Z,24.96
2022-08-17T22:26:00.696Z,24.92
2022-08-17T22:28:49.219Z,24.84
2022-08-17T22:31:18.010Z,24.84
2022-08-17T22:33:57.670Z,24.94
2022-08-17T22:36:32.569Z,24.89
2022-08-17T22:39:08.677Z,24.94
2022-08-17T22:41:48.260Z,24.92
2022-08-17T22:44:27.407Z,24.86
2022-08-17T22:46:56.120Z,24.55
2022-08-17T22:49:32.373Z,24.26
2022-08-17T22:52:05.078Z,24.27
2022-08-17T22:54:50.341Z,24.38
2022-08-17T22:57:36.563Z,24.51
2022-08-17T23:00:05.074Z,24.05
2022-08-17T23:02:33.783Z,24.22
2022-08-17T23:05:10.188Z,24.09
2022-08-17T23:07:36.979Z,24.09
2022-08-17T23:10:06.476Z,24.36
2022-08-17T23:12:38.238Z,24.43
2022-08-17T23:15:10.669Z,24.45
2022-08-17T23:17:38.068Z,24.46
2022-08-17T23:20:08.265Z,24.62
2022-08-17T23:22:38.038Z,24.53
2022-08-17T23:25:26.466Z,24.66
2022-08-17T23:27:53.433Z,24.65
2022-08-17T23:30:20.595Z,24.53
2022-08-17T23:32:53.868Z,24.59
2022-08-17T23:35:39.824Z,24.68
2022-08-17T23:38:11.835Z,24.58
2022-08-17T23:40:39.213Z,24.48
2022-08-17T23:43:23.457Z,24.65
2022-08-17T23:45:52.575Z,24.50
2022-08-17T23:48:35.897Z,24.57
2022-08-17T23:51:09.098Z,24.52
2022-08-17T23:53:40.192Z,24.50
2022-08-17T23:56:11.478Z,24.44
2022-08-17T23:58:42.100Z,24.39
